createdAt,value
2019-06-27T00:02:15.853Z,446.90
2019-06-27T00:04:46.853Z,452.00
2019-06-27T00:07:17.797Z,449.80
2019-06-27T00:09:49.164Z,445.67
2019-06-27T00:12:20.810Z,441.90
2019-06-27T00:14:52.176Z,441.10
2019-06-27T00:17:23.291Z,444.77
2019-06-27T00:19:54.964Z,443.77
2019-06-27T00:22:25.960Z,438.73
2019-06-27T00:24:57.085Z,444.37
2019-06-27T00:27:28.105Z,443.30
2019-06-27T00:29:59.127Z,442.97
2019-06-27T00:32:30.078Z,446.43
2019-06-27T00:35:01.162Z,446.93
2019-06-27T00:37:32.538Z,442.13
2019-06-27T00:40:03.530Z,455.80
2019-06-27T00:42:34.605Z,450.17
2019-06-27T00:45:06.488Z,451.50
2019-06-27T00:47:37.532Z,443.17
2019-06-27T00:50:09.699Z,443.87
2019-06-27T00:52:41.027Z,445.60
2019-06-27T00:55:12.771Z,448.83
2019-06-27T00:57:43.982Z,445.70
2019-06-27T01:00:16.854Z,446.23
2019-06-27T01:02:48.319Z,444.07
2019-06-27T01:05:19.695Z,445.03
2019-06-27T01:07:51.093Z,449.17
2019-06-27T01:10:22.745Z,441.70
2019-06-27T01:12:54.074Z,436.87
2019-06-27T01:15:25.262Z,438.77
2019-06-27T01:17:56.305Z,437.23
2019-06-27T01:20:27.785Z,434.77
2019-06-27T01:22:59.270Z,438.17
2019-06-27T01:25:31.126Z,438.70
2019-06-27T01:28:03.046Z,436.60
2019-06-27T01:30:34.075Z,442.93
2019-06-27T01:33:05.270Z,432.43
2019-06-27T01:35:37.214Z,437.67
2019-06-27T01:38:08.460Z,431.17
2019-06-27T01:40:39.986Z,433.87
2019-06-27T01:43:11.173Z,438.67
2019-06-27T01:45:47.877Z,437.50
2019-06-27T01:48:19.019Z,438.03
2019-06-27T01:50:50.495Z,441.37
2019-06-27T01:53:22.162Z,435.27
2019-06-27T01:55:53.793Z,434.33
2019-06-27T01:58:24.775Z,434.43
2019-06-27T02:00:56.577Z,435.90
2019-06-27T02:03:28.099Z,432.73
2019-06-27T02:05:59.850Z,438.10
2019-06-27T02:08:31.446Z,433.37
2019-06-27T02:11:03.115Z,431.23
2019-06-27T02:13:34.831Z,427.97
2019-06-27T02:16:06.368Z,442.57
2019-06-27T02:18:38.655Z,431.47
2019-06-27T02:21:09.889Z,427.37
2019-06-27T02:23:40.950Z,427.80
2019-06-27T02:26:12.268Z,427.63
2019-06-27T02:28:43.514Z,426.53
2019-06-27T02:31:14.714Z,432.10
2019-06-27T02:33:45.781Z,427.63
2019-06-27T02:36:16.662Z,422.30
2019-06-27T02:38:47.572Z,427.03
2019-06-27T02:41:18.618Z,426.50
2019-06-27T02:43:49.462Z,431.17
2019-06-27T02:46:21.661Z,429.67
2019-06-27T02:48:53.517Z,423.60
2019-06-27T02:51:25.121Z,435.17
2019-06-27T02:53:56.576Z,427.50
2019-06-27T02:56:27.595Z,426.43
2019-06-27T02:58:59.076Z,425.53
2019-06-27T03:01:30.250Z,431.63
2019-06-27T03:04:02.260Z,426.63
2019-06-27T03:06:33.468Z,427.27
2019-06-27T03:09:05.467Z,426.93
2019-06-27T03:11:36.684Z,424.07
2019-06-27T03:14:07.787Z,422.73
2019-06-27T03:16:39.105Z,429.93
2019-06-27T03:19:10.422Z,431.77
2019-06-27T03:21:41.738Z,427.43
2019-06-27T03:24:12.868Z,431.83
2019-06-27T03:26:44.143Z,432.53
2019-06-27T03:29:19.909Z,428.57
2019-06-27T03:31:48.073Z,428.10
2019-06-27T03:34:19.286Z,428.53
2019-06-27T03:36:50.512Z,428.13
2019-06-27T03:39:21.679Z,429.90
2019-06-27T03:41:53.429Z,434.43
2019-06-27T03:44:24.614Z,426.93
2019-06-27T03:46:55.746Z,431.30
2019-06-27T03:49:26.732Z,431.77
2019-06-27T03:51:57.985Z,430.90
2019-06-27T03:54:29.106Z,433.87
2019-06-27T03:57:00.187Z,431.90
2019-06-27T03:59:31.423Z,430.30
2019-06-27T04:02:02.446Z,427.43
2019-06-27T04:04:33.642Z,429.00
2019-06-27T04:07:04.963Z,427.97
2019-06-27T04:09:36.189Z,431.90
2019-06-27T04:12:07.339Z,429.30
2019-06-27T04:14:38.280Z,436.33
2019-06-27T04:17:09.847Z,426.90
2019-06-27T04:19:41.117Z,430.53
2019-06-27T04:22:17.110Z,431.93
2019-06-27T04:24:45.339Z,433.40
2019-06-27T04:27:16.602Z,432.20
2019-06-27T04:29:47.946Z,436.57
2019-06-27T04:32:19.207Z,430.80
2019-06-27T04:34:50.041Z,435.43
2019-06-27T04:37:21.186Z,431.57
2019-06-27T04:39:52.041Z,436.83
2019-06-27T04:42:23.057Z,440.37
2019-06-27T04:44:54.442Z,438.00
2019-06-27T04:47:25.805Z,436.33
2019-06-27T04:49:56.735Z,447.87
2019-06-27T04:52:28.170Z,444.13
2019-06-27T04:55:03.153Z,451.33
2019-06-27T04:57:32.546Z,453.53
2019-06-27T05:00:03.981Z,461.50
2019-06-27T05:02:35.432Z,472.80
2019-06-27T05:05:06.918Z,481.23
2019-06-27T05:07:39.339Z,488.93
2019-06-27T05:10:10.581Z,499.87
2019-06-27T05:12:41.925Z,501.40
2019-06-27T05:15:13.135Z,508.80
2019-06-27T05:17:44.271Z,510.13
2019-06-27T05:20:15.465Z,514.77
2019-06-27T05:22:46.691Z,526.93
2019-06-27T05:25:17.994Z,538.27
2019-06-27T05:27:49.461Z,558.47
2019-06-27T05:30:20.632Z,569.70
2019-06-27T05:32:51.936Z,593.33
2019-06-27T05:35:23.379Z,626.00
2019-06-27T05:37:54.852Z,648.07
2019-06-27T05:40:26.222Z,658.60
2019-06-27T05:42:57.269Z,695.63
2019-06-27T05:45:28.528Z,646.47
2019-06-27T05:47:59.650Z,647.80
2019-06-27T05:50:30.849Z,660.73
2019-06-27T05:53:02.149Z,692.93
2019-06-27T05:55:33.332Z,718.83
2019-06-27T05:58:05.398Z,736.23
2019-06-27T06:00:36.576Z,732.00
2019-06-27T06:03:07.993Z,750.83
2019-06-27T06:05:39.073Z,764.50
2019-06-27T06:08:10.199Z,780.67
2019-06-27T06:10:41.531Z,797.73
2019-06-27T06:13:12.687Z,808.33
2019-06-27T06:15:43.830Z,825.30
2019-06-27T06:18:15.399Z,837.33
2019-06-27T06:20:46.597Z,826.13
2019-06-27T06:23:18.084Z,806.57
2019-06-27T06:25:49.172Z,817.13
2019-06-27T06:28:20.328Z,833.97
2019-06-27T06:30:51.503Z,844.60
2019-06-27T06:33:22.554Z,826.97
2019-06-27T06:35:53.603Z,838.63
2019-06-27T06:38:25.012Z,826.50
2019-06-27T06:40:56.288Z,812.37
2019-06-27T06:43:27.527Z,792.40
2019-06-27T06:45:58.429Z,797.70
2019-06-27T06:48:29.799Z,788.03
2019-06-27T06:51:00.981Z,797.43
2019-06-27T06:53:32.454Z,824.13
2019-06-27T06:56:03.638Z,854.97
2019-06-27T06:58:34.936Z,851.33
2019-06-27T07:01:05.953Z,852.53
2019-06-27T07:03:36.959Z,851.60
2019-06-27T07:06:08.083Z,851.57
2019-06-27T07:08:39.195Z,878.50
2019-06-27T07:11:11.446Z,885.80
2019-06-27T07:13:42.617Z,912.50
2019-06-27T07:16:13.518Z,887.57
2019-06-27T07:18:44.759Z,874.93
2019-06-27T07:21:16.016Z,871.90
2019-06-27T07:23:47.421Z,900.10
2019-06-27T07:26:22.067Z,917.37
2019-06-27T07:28:51.948Z,917.67
2019-06-27T07:31:23.523Z,904.53
2019-06-27T07:33:55.012Z,884.90
2019-06-27T07:36:26.608Z,880.00
2019-06-27T07:38:57.958Z,881.63
2019-06-27T07:41:29.776Z,883.17
2019-06-27T07:44:01.331Z,877.23
2019-06-27T07:46:32.707Z,876.57
2019-06-27T07:49:04.394Z,869.67
2019-06-27T07:51:36.357Z,873.67
2019-06-27T07:54:08.117Z,874.67
2019-06-27T07:56:39.344Z,867.37
2019-06-27T07:59:10.957Z,889.23
2019-06-27T08:01:42.466Z,865.27
2019-06-27T08:04:13.603Z,867.63
2019-06-27T08:06:44.525Z,885.13
2019-06-27T08:09:15.604Z,896.53
2019-06-27T08:11:47.016Z,912.87
2019-06-27T08:14:18.171Z,916.53
2019-06-27T08:16:49.740Z,922.30
2019-06-27T08:19:21.367Z,924.37
2019-06-27T08:21:52.541Z,928.77
2019-06-27T08:24:24.316Z,931.33
2019-06-27T08:26:55.540Z,924.70
2019-06-27T08:29:26.629Z,922.13
2019-06-27T08:31:57.745Z,931.63
2019-06-27T08:34:28.888Z,920.70
2019-06-27T08:37:00.100Z,917.10
2019-06-27T08:39:31.504Z,927.80
2019-06-27T08:42:02.411Z,944.23
2019-06-27T08:44:33.567Z,938.13
2019-06-27T08:47:04.544Z,935.60
2019-06-27T08:49:36.192Z,928.77
2019-06-27T08:52:07.657Z,918.33
2019-06-27T08:54:38.901Z,918.27
2019-06-27T08:57:10.045Z,932.50
2019-06-27T08:59:41.061Z,937.73
2019-06-27T09:02:11.967Z,938.43
2019-06-27T09:04:43.502Z,945.60
2019-06-27T09:07:14.763Z,933.47
2019-06-27T09:09:45.832Z,933.40
2019-06-27T09:12:17.166Z,929.90
2019-06-27T09:14:48.390Z,936.50
2019-06-27T09:17:19.390Z,940.70
2019-06-27T09:19:50.328Z,963.23
2019-06-27T09:22:21.454Z,976.00
2019-06-27T09:24:52.836Z,980.77
2019-06-27T09:27:23.892Z,977.73
2019-06-27T09:29:54.884Z,966.00
2019-06-27T09:32:26.529Z,961.23
2019-06-27T09:34:57.595Z,967.40
2019-06-27T09:37:29.960Z,979.20
2019-06-27T09:40:01.300Z,971.20
2019-06-27T09:42:32.363Z,958.47
2019-06-27T09:45:03.869Z,958.60
2019-06-27T09:47:34.856Z,957.07
2019-06-27T09:50:06.183Z,966.33
2019-06-27T09:52:37.101Z,971.30
2019-06-27T09:55:09.565Z,968.23
2019-06-27T09:57:40.653Z,961.33
2019-06-27T10:00:12.803Z,977.17
2019-06-27T10:02:43.698Z,973.87
2019-06-27T10:05:15.363Z,979.37
2019-06-27T10:07:46.317Z,966.57
2019-06-27T10:10:17.799Z,953.07
2019-06-27T10:12:48.919Z,947.17
2019-06-27T10:15:20.446Z,962.07
2019-06-27T10:17:51.730Z,973.00
2019-06-27T10:20:23.071Z,969.43
2019-06-27T10:22:54.337Z,968.13
2019-06-27T10:25:25.896Z,978.97
2019-06-27T10:27:57.005Z,972.80
2019-06-27T10:30:28.289Z,987.93
2019-06-27T10:33:00.504Z,976.33
2019-06-27T10:35:32.029Z,975.73
2019-06-27T10:38:03.212Z,989.73
2019-06-27T10:40:34.635Z,991.47
2019-06-27T10:43:05.754Z,991.43
2019-06-27T10:45:36.964Z,1008.23
2019-06-27T10:48:07.904Z,1000.63
2019-06-27T10:50:39.100Z,986.63
2019-06-27T10:53:10.413Z,1001.07
2019-06-27T10:55:42.107Z,1005.77
2019-06-27T10:58:13.236Z,993.30
2019-06-27T11:00:44.457Z,984.43
2019-06-27T11:03:16.536Z,993.80
2019-06-27T11:05:48.037Z,995.63
2019-06-27T11:08:19.482Z,1003.43
2019-06-27T11:10:50.948Z,991.63
2019-06-27T11:13:23.122Z,995.60
2019-06-27T11:15:54.690Z,992.30
2019-06-27T11:18:25.802Z,991.33
2019-06-27T11:20:56.929Z,999.00
2019-06-27T11:23:27.966Z,1004.87
2019-06-27T11:25:58.998Z,1015.50
2019-06-27T11:28:30.229Z,1008.63
2019-06-27T11:31:01.357Z,1002.13
2019-06-27T11:33:33.320Z,1001.13
2019-06-27T11:36:04.549Z,980.73
2019-06-27T11:38:35.862Z,971.60
2019-06-27T11:41:07.455Z,962.53
2019-06-27T11:43:38.922Z,952.17
2019-06-27T11:46:10.263Z,956.83
2019-06-27T11:48:41.238Z,958.13
2019-06-27T11:51:12.701Z,954.80
2019-06-27T11:53:44.370Z,950.97
2019-06-27T11:56:16.160Z,948.90
2019-06-27T11:58:47.547Z,947.30
2019-06-27T12:01:19.379Z,950.30
2019-06-27T12:03:50.991Z,950.27
2019-06-27T12:06:22.425Z,960.33
2019-06-27T12:08:53.408Z,954.20
2019-06-27T12:11:24.412Z,959.40
2019-06-27T12:13:55.667Z,947.60
2019-06-27T12:16:27.114Z,948.67
2019-06-27T12:18:58.443Z,959.17
2019-06-27T12:21:29.525Z,960.47
2019-06-27T12:24:00.748Z,971.80
2019-06-27T12:26:32.318Z,963.33
2019-06-27T12:29:03.765Z,959.50
2019-06-27T12:31:35.190Z,963.70
2019-06-27T12:34:07.721Z,959.50
2019-06-27T12:36:39.980Z,964.40
2019-06-27T12:39:11.125Z,950.33
2019-06-27T12:41:42.338Z,945.93
2019-06-27T12:44:13.496Z,954.33
2019-06-27T12:46:44.938Z,950.33
2019-06-27T12:49:16.144Z,958.20
2019-06-27T12:51:48.688Z,953.17
2019-06-27T12:54:20.127Z,947.27
2019-06-27T12:56:51.589Z,950.37
2019-06-27T12:59:22.990Z,942.57
2019-06-27T13:01:55.269Z,952.37
2019-06-27T13:04:26.459Z,945.03
2019-06-27T13:06:58.660Z,948.10
2019-06-27T13:09:29.753Z,949.40
2019-06-27T13:12:00.916Z,948.30
2019-06-27T13:14:31.831Z,941.13
2019-06-27T13:17:03.305Z,934.67
2019-06-27T13:19:34.731Z,933.90
2019-06-27T13:22:05.778Z,938.97
2019-06-27T13:24:36.933Z,940.67
2019-06-27T13:27:08.150Z,936.97
2019-06-27T13:29:39.598Z,929.47
2019-06-27T13:32:10.891Z,932.40
2019-06-27T13:34:43.664Z,936.27
2019-06-27T13:37:14.761Z,935.23
2019-06-27T13:39:45.850Z,930.23
2019-06-27T13:42:16.879Z,919.27
2019-06-27T13:44:47.896Z,916.70
2019-06-27T13:47:20.328Z,909.23
2019-06-27T13:49:51.281Z,915.37
2019-06-27T13:52:22.323Z,911.27
2019-06-27T13:54:53.281Z,918.83
2019-06-27T13:57:24.399Z,921.83
2019-06-27T13:59:55.460Z,919.87
2019-06-27T14:02:26.437Z,930.57
2019-06-27T14:04:58.031Z,930.87
2019-06-27T14:07:29.153Z,929.17
2019-06-27T14:10:00.168Z,927.63
2019-06-27T14:12:31.805Z,936.13
2019-06-27T14:15:02.665Z,937.03
2019-06-27T14:17:33.903Z,943.77
2019-06-27T14:20:05.439Z,941.53
2019-06-27T14:22:37.109Z,936.80
2019-06-27T14:25:08.175Z,939.53
2019-06-27T14:27:39.210Z,967.43
2019-06-27T14:30:10.763Z,943.90
2019-06-27T14:32:42.047Z,940.33
2019-06-27T14:35:15.727Z,934.63
2019-06-27T14:37:50.352Z,932.73
2019-06-27T14:40:21.578Z,929.43
2019-06-27T14:42:52.629Z,934.50
2019-06-27T14:45:25.057Z,932.20
2019-06-27T14:47:56.601Z,929.60
2019-06-27T14:50:28.291Z,929.73
2019-06-27T14:53:00.149Z,933.97
2019-06-27T14:55:31.717Z,935.17
2019-06-27T14:58:03.033Z,925.07
2019-06-27T15:00:34.262Z,928.07
2019-06-27T15:03:05.429Z,937.67
2019-06-27T15:05:36.463Z,928.80
2019-06-27T15:08:07.584Z,937.67
2019-06-27T15:10:38.456Z,936.47
2019-06-27T15:13:09.759Z,936.00
2019-06-27T15:15:40.983Z,940.33
2019-06-27T15:18:12.214Z,936.73
2019-06-27T15:20:43.311Z,942.30
2019-06-27T15:23:14.569Z,946.13
2019-06-27T15:25:45.448Z,946.57
2019-06-27T15:28:16.505Z,951.43
2019-06-27T15:30:47.840Z,941.63
2019-06-27T15:33:19.104Z,940.80
2019-06-27T15:35:52.260Z,947.47
2019-06-27T15:38:23.106Z,940.67
2019-06-27T15:40:55.559Z,948.30
2019-06-27T15:43:27.260Z,934.47
2019-06-27T15:45:58.288Z,946.33
2019-06-27T15:48:29.238Z,945.20
2019-06-27T15:51:00.511Z,946.70
2019-06-27T15:53:31.781Z,941.50
2019-06-27T15:56:02.686Z,949.97
2019-06-27T15:58:33.954Z,937.27
2019-06-27T16:01:05.038Z,933.10
2019-06-27T16:03:36.319Z,935.13
2019-06-27T16:06:09.710Z,919.07
2019-06-27T16:08:40.410Z,921.83
2019-06-27T16:11:13.971Z,930.10
2019-06-27T16:13:45.191Z,926.70
2019-06-27T16:16:16.117Z,922.77
2019-06-27T16:18:47.351Z,924.73
2019-06-27T16:21:18.694Z,915.33
2019-06-27T16:23:50.189Z,920.03
2019-06-27T16:26:21.187Z,926.43
2019-06-27T16:28:54.295Z,921.27
2019-06-27T16:31:25.513Z,913.90
2019-06-27T16:33:56.843Z,917.07
2019-06-27T16:36:29.268Z,918.50
2019-06-27T16:39:00.456Z,919.07
2019-06-27T16:41:33.108Z,913.43
2019-06-27T16:44:04.699Z,912.43
2019-06-27T16:46:35.845Z,905.20
2019-06-27T16:49:07.155Z,907.30
2019-06-27T16:51:38.443Z,905.07
2019-06-27T16:54:09.657Z,906.43
2019-06-27T16:56:40.971Z,895.77
2019-06-27T16:59:12.544Z,900.80
2019-06-27T17:01:43.621Z,901.53
2019-06-27T17:04:14.674Z,898.57
2019-06-27T17:06:45.913Z,895.77
2019-06-27T17:09:17.258Z,897.13
2019-06-27T17:11:48.474Z,886.63
2019-06-27T17:14:19.849Z,894.93
2019-06-27T17:16:51.068Z,886.33
2019-06-27T17:19:22.266Z,881.17
2019-06-27T17:21:53.376Z,881.63
2019-06-27T17:24:24.376Z,889.37
2019-06-27T17:26:55.553Z,882.10
2019-06-27T17:29:26.883Z,884.00
2019-06-27T17:31:57.957Z,878.73
2019-06-27T17:34:28.822Z,882.43
2019-06-27T17:36:59.741Z,874.47
2019-06-27T17:39:30.934Z,870.33
2019-06-27T17:42:01.851Z,871.03
2019-06-27T17:44:32.803Z,869.67
2019-06-27T17:47:03.720Z,873.60
2019-06-27T17:49:34.820Z,866.10
2019-06-27T17:52:06.098Z,862.30
2019-06-27T17:54:38.540Z,863.60
2019-06-27T17:57:09.753Z,860.53
2019-06-27T17:59:41.310Z,857.27
2019-06-27T18:02:12.455Z,850.97
2019-06-27T18:04:46.107Z,849.37
2019-06-27T18:07:17.545Z,846.57
2019-06-27T18:09:49.256Z,845.47
2019-06-27T18:12:21.934Z,839.93
2019-06-27T18:14:53.324Z,835.67
2019-06-27T18:17:32.857Z,835.93
2019-06-27T18:19:57.540Z,826.20
2019-06-27T18:22:28.568Z,822.13
2019-06-27T18:24:59.817Z,832.20
2019-06-27T18:27:31.005Z,812.30
2019-06-27T18:30:02.019Z,813.23
2019-06-27T18:32:34.039Z,805.03
2019-06-27T18:35:05.667Z,800.03
2019-06-27T18:37:36.845Z,802.40
2019-06-27T18:40:08.283Z,799.70
2019-06-27T18:42:39.307Z,795.57
2019-06-27T18:45:10.631Z,791.07
2019-06-27T18:47:41.610Z,796.27
2019-06-27T18:50:12.927Z,786.63
2019-06-27T18:52:43.835Z,782.10
2019-06-27T18:55:15.112Z,777.97
2019-06-27T18:57:46.093Z,773.77
2019-06-27T19:00:17.726Z,772.50
2019-06-27T19:02:49.187Z,761.93
2019-06-27T19:05:20.253Z,765.80
2019-06-27T19:07:51.456Z,762.33
2019-06-27T19:10:23.036Z,758.57
2019-06-27T19:12:54.269Z,752.87
2019-06-27T19:15:25.234Z,746.73
2019-06-27T19:17:56.119Z,746.73
2019-06-27T19:20:41.748Z,741.53
2019-06-27T19:23:49.741Z,723.97
2019-06-27T19:26:20.842Z,716.43
2019-06-27T19:28:51.880Z,708.83
2019-06-27T19:31:22.938Z,711.20
2019-06-27T19:33:54.135Z,703.97
2019-06-27T19:36:25.076Z,697.93
2019-06-27T19:38:57.201Z,699.03
2019-06-27T19:41:28.293Z,681.87
2019-06-27T19:43:59.531Z,681.77
2019-06-27T19:46:30.965Z,679.40
2019-06-27T19:49:02.098Z,671.40
2019-06-27T19:51:33.503Z,674.00
2019-06-27T19:54:04.836Z,658.83
2019-06-27T19:56:36.455Z,664.43
2019-06-27T19:59:07.635Z,661.10
2019-06-27T20:01:38.894Z,658.93
2019-06-27T20:04:10.235Z,654.17
2019-06-27T20:06:41.136Z,649.93
2019-06-27T20:09:12.146Z,644.73
2019-06-27T20:11:43.225Z,650.03
2019-06-27T20:14:14.385Z,648.77
2019-06-27T20:16:45.426Z,645.33
2019-06-27T20:19:16.730Z,632.33
2019-06-27T20:21:47.977Z,631.23
2019-06-27T20:24:21.756Z,632.70
2019-06-27T20:26:51.792Z,633.57
2019-06-27T20:29:22.873Z,630.30
2019-06-27T20:31:56.282Z,623.37
2019-06-27T20:34:27.377Z,625.53
2019-06-27T20:36:58.599Z,630.83
2019-06-27T20:39:29.712Z,631.70
2019-06-27T20:42:00.785Z,640.90
2019-06-27T20:44:31.796Z,636.03
2019-06-27T20:47:02.876Z,632.30
2019-06-27T20:49:33.754Z,631.77
2019-06-27T20:52:05.131Z,629.87
2019-06-27T20:54:36.024Z,636.50
2019-06-27T20:57:07.355Z,630.57
2019-06-27T20:59:38.495Z,634.60
2019-06-27T21:02:09.743Z,622.13
2019-06-27T21:04:41.787Z,629.23
2019-06-27T21:07:12.685Z,636.33
2019-06-27T21:09:43.802Z,621.57
2019-06-27T21:12:15.196Z,633.33
2019-06-27T21:14:46.279Z,624.00
2019-06-27T21:17:17.495Z,618.10
2019-06-27T21:19:48.639Z,622.67
2019-06-27T21:22:19.676Z,620.13
2019-06-27T21:24:51.694Z,619.07
2019-06-27T21:27:22.803Z,646.77
2019-06-27T21:29:53.768Z,615.03
2019-06-27T21:32:31.490Z,623.37
2019-06-27T21:34:57.620Z,610.80
2019-06-27T21:37:28.650Z,615.33
2019-06-27T21:39:59.586Z,608.97
2019-06-27T21:42:30.834Z,613.60
2019-06-27T21:45:02.109Z,613.10
2019-06-27T21:47:34.266Z,604.83
2019-06-27T21:50:05.407Z,605.37
2019-06-27T21:52:36.380Z,607.83
2019-06-27T21:55:07.688Z,605.50
2019-06-27T21:57:38.863Z,602.57
2019-06-27T22:00:10.444Z,604.50
2019-06-27T22:02:43.482Z,601.70
2019-06-27T22:05:15.496Z,595.27
2019-06-27T22:07:46.757Z,598.10
2019-06-27T22:10:18.047Z,603.60
2019-06-27T22:12:49.676Z,601.50
2019-06-27T22:15:20.880Z,593.47
2019-06-27T22:17:52.572Z,590.37
2019-06-27T22:20:24.009Z,593.40
2019-06-27T22:22:55.682Z,583.40
2019-06-27T22:25:39.896Z,579.10
2019-06-27T22:28:00.234Z,577.83
2019-06-27T22:30:31.507Z,570.03
2019-06-27T22:33:02.926Z,566.67
2019-06-27T22:35:34.192Z,559.93
2019-06-27T22:38:22.927Z,562.60
2019-06-27T22:41:11.272Z,547.03
2019-06-27T22:44:00.111Z,552.30
2019-06-27T22:46:48.891Z,545.70
2019-06-27T22:49:18.919Z,539.37
2019-06-27T22:52:27.353Z,539.13
2019-06-27T22:55:00.199Z,538.17
2019-06-27T22:57:31.589Z,538.20
2019-06-27T23:00:03.606Z,541.50
2019-06-27T23:02:36.152Z,540.03
2019-06-27T23:05:07.754Z,546.60
2019-06-27T23:07:38.588Z,549.67
2019-06-27T23:10:09.808Z,560.87
2019-06-27T23:12:40.930Z,553.97
2019-06-27T23:15:12.108Z,561.50
2019-06-27T23:17:43.997Z,558.70
2019-06-27T23:20:15.469Z,552.37
2019-06-27T23:22:46.677Z,558.97
2019-06-27T23:25:17.802Z,558.97
2019-06-27T23:27:48.950Z,552.63
2019-06-27T23:30:20.528Z,554.80
2019-06-27T23:32:51.730Z,559.60
2019-06-27T23:35:23.064Z,560.10
2019-06-27T23:37:53.946Z,567.10
2019-06-27T23:40:24.964Z,568.17
2019-06-27T23:42:56.053Z,570.67
2019-06-27T23:45:27.179Z,571.53
2019-06-27T23:47:59.065Z,572.97
2019-06-27T23:50:30.246Z,575.07
2019-06-27T23:53:02.366Z,577.67
2019-06-27T23:55:33.516Z,571.77
2019-06-27T23:58:04.691Z,573.67
